Flight Track Log - Related Links

Times and Time Zones

All times are in EDT time to prevent confusion due to time zone crossing. See the FSR411 flight status page for this flight to view local times or setup timezone preferences in your user account.

Time Position Orientation Groundspeed Altitude Reporting Facility
EDT Latitude Longitude Course Direction KTS MPH feet Rate Location/Type
Tue 16:28:47 42.4219 -83.0219 220° Southwest 137 158 1,400  Level Cleveland Center
Tue 16:29:36 42.4653 -83.0431 340° North 222 255 3,200 3,382 Climbing Cleveland Center
Tue 16:30:37 42.5017 -83.0925 315° West 211 243 7,600 3,879 Climbing Cleveland Center
Tue 16:31:32 42.4914 -83.1739 260° West 250 288 10,700 2,774 Climbing Cleveland Center
Tue 16:32:10 42.4842 -83.2242 259° West 296 341 11,900 1,347 Climbing Cleveland Center
Tue 16:33:10 42.4603 -83.3525 256° West 334 384 12,900 550 Climbing Cleveland Center
Tue 16:34:00 41.9937 -83.4529 220° Southwest  Level FlightAware Approximate
Tue 16:34:10 42.3756 -83.4081 206° Southwest 370 426 13,000  Level Cleveland Center
Tue 16:35:10 42.2803 -83.4600 202° Southwest 370 426 13,100 1,300 Climbing Cleveland Center
Tue 16:36:10 42.1831 -83.5144 203° Southwest 380 437 15,600 2,900 Climbing Cleveland Center
Tue 16:37:10 42.0731 -83.5764 203° Southwest 380 437 18,900 3,150 Climbing Cleveland Center
Tue 16:38:10 41.9736 -83.6306 202° Southwest 380 437 21,900 2,800 Climbing Cleveland Center
Tue 16:39:10 41.8742 -83.6869 203° Southwest 380 437 24,500 2,250 Climbing Cleveland Center
Tue 16:40:10 41.7706 -83.7433 202° Southwest 386 444 26,400 1,450 Climbing Cleveland Center
Tue 16:41:10 41.6644 -83.8047 203° Southwest 404 465 27,400 800 Climbing Cleveland Center
Tue 16:42:10 41.5686 -83.8806 211° Southwest 404 465 28,000 300 Climbing Cleveland Center
Tue 16:43:10 41.4683 -83.9586 210° Southwest 419 482 28,000  Level Cleveland Center
Tue 16:44:10 41.3700 -84.0336 210° Southwest 419 482 28,000  Level Cleveland Center
Tue 16:45:10 41.2739 -84.1142 212° Southwest 414 476 28,000  Level Cleveland Center
Tue 16:46:10 41.2178 -84.2383 239° Southwest 389 448 28,000  Level Cleveland Center
Tue 16:47:28 41.1778 -84.4158 253° West 390 449 28,000  Level Chicago Center
Tue 16:48:30 41.1428 -84.5514 251° West 389 448 28,000  Level Chicago Center
Tue 16:49:32 41.1042 -84.6872 249° West 392 451 28,000  Level Chicago Center
Tue 16:50:34 41.0669 -84.8233 250° West 393 452 28,000  Level Chicago Center
Tue 16:51:36 41.0275 -84.9603 249° West 395 455 28,000  Level Chicago Center
Tue 16:52:38 40.9894 -85.0964 250° West 395 455 28,000  Level Chicago Center
Tue 16:53:41 40.9517 -85.2328 250° West 393 452 28,000  Level Chicago Center
Tue 16:54:43 40.9047 -85.3964 249° West 394 453 28,000  Level Chicago Center
Tue 16:55:45 40.8658 -85.5328 249° West 396 456 28,000  Level Chicago Center
Tue 16:56:47 40.8261 -85.6675 249° West 394 453 28,000  Level Chicago Center
Tue 16:57:49 40.7875 -85.8033 249° West 394 453 28,000  Level Chicago Center
Tue 16:58:51 40.7486 -85.9383 249° West 393 452 28,000  Level Chicago Center
Tue 16:59:53 40.7100 -86.0733 249° West 393 452 28,000  Level Chicago Center
Tue 17:00:55 40.6653 -86.2278 249° West 392 451 28,000 -484 Level Chicago Center
Tue 17:01:57 40.6261 -86.3600 249° West 391 450 27,000 -1,355 Descending Chicago Center
Tue 17:02:59 40.5867 -86.4919 249° West 389 448 25,200 -1,452 Descending Chicago Center
Tue 17:04:01 40.5489 -86.6228 249° West 387 445 24,000 -1,548 Descending Chicago Center
Tue 17:05:03 40.5014 -86.7800 248° West 389 448 22,000 -1,839 Descending Chicago Center
Tue 17:06:05 40.4631 -86.9092 249° West 384 442 20,200 -1,680 Descending Chicago Center
Tue 17:07:08 40.4244 -87.0347 248° West 376 433 18,500 -1,632 Descending Chicago Center
Tue 17:08:10 40.3878 -87.1581 249° West 369 425 16,800 -1,694 Descending Chicago Center
Tue 17:09:12 40.3500 -87.2794 248° West 364 419 15,000 -1,887 Descending Chicago Center
Tue 17:10:14 40.3053 -87.4244 248° West 360 414 12,900 -1,742 Descending Chicago Center
Tue 17:11:16 40.2694 -87.5450 249° West 345 397 11,400 -1,597 Descending Chicago Center
Tue 17:12:18 40.2383 -87.6439 248° West 304 350 9,600 -1,790 Descending Chicago Center
Tue 17:13:20 40.2089 -87.7381 248° West 285 328 7,700 -1,790 Descending Chicago Center
Tue 17:14:22 40.1825 -87.8225 248° West 273 314 5,900 -1,645 Descending Chicago Center
Tue 17:15:24 40.1508 -87.9139 246° West 264 304 4,300 -1,065 Descending Chicago Center
Tue 17:16:26 40.0978 -87.9978 230° Southwest 266 306 3,700 -581 Descending Chicago Center
Tue 17:18:00 40.0567 -88.1798 246° West  Level FlightAware Approximate
Tue 17:25:00 40.0333 -88.2667 252° West  Level FlightAware Approximate
Tue 17:26:00 40.0388 -88.2778 252° West  Level Estimated
Tue 17:27:00 40.0388 -88.2778 252° West  Level Estimated
Tue 17:28:00 40.0388 -88.2778 252° West  Level Estimated
Tue 17:29:00 40.0388 -88.2778 252° West  Level Estimated

Login

Don't have an account? Register now (free) for customized features, flight alerts, and more!